createdAt,value
2022-08-30T00:02:02.436Z,78.21
2022-08-30T00:05:05.710Z,77.68
2022-08-30T00:08:08.621Z,77.88
2022-08-30T00:11:14.864Z,77.10
2022-08-30T00:14:17.762Z,76.22
2022-08-30T00:17:20.708Z,76.51
2022-08-30T00:20:29.372Z,76.71
2022-08-30T00:23:32.838Z,76.73
2022-08-30T00:26:35.451Z,78.14
2022-08-30T00:29:38.316Z,77.18
2022-08-30T00:32:41.472Z,77.51
2022-08-30T00:35:44.797Z,77.81
2022-08-30T00:38:47.399Z,78.23
2022-08-30T00:41:50.792Z,78.50
2022-08-30T00:44:54.155Z,79.40
2022-08-30T00:47:57.364Z,79.55
2022-08-30T00:51:03.534Z,79.49
2022-08-30T00:54:07.988Z,79.85
2022-08-30T00:57:12.317Z,80.16
2022-08-30T01:00:17.016Z,80.53
2022-08-30T01:03:20.304Z,78.46
2022-08-30T01:06:23.543Z,78.67
2022-08-30T01:09:26.826Z,79.40
2022-08-30T01:12:30.303Z,80.35
2022-08-30T01:15:33.492Z,79.89
2022-08-30T01:18:37.325Z,79.93
2022-08-30T01:21:54.605Z,78.95
2022-08-30T01:24:59.591Z,78.80
2022-08-30T01:28:06.762Z,79.18
2022-08-30T01:31:09.703Z,79.54
2022-08-30T01:34:13.897Z,79.44
2022-08-30T01:37:22.010Z,79.83
2022-08-30T01:40:24.699Z,80.55
2022-08-30T01:43:27.801Z,80.55
2022-08-30T01:46:36.692Z,80.93
2022-08-30T01:49:40.527Z,80.70
2022-08-30T01:52:43.090Z,81.00
2022-08-30T01:55:46.246Z,82.21
2022-08-30T01:58:49.602Z,81.25
2022-08-30T02:01:52.564Z,81.85
2022-08-30T02:04:56.848Z,82.31
2022-08-30T02:08:01.413Z,83.72
2022-08-30T02:11:06.616Z,82.19
2022-08-30T02:14:09.321Z,82.85
2022-08-30T02:17:13.606Z,83.41
2022-08-30T02:20:16.226Z,84.08
2022-08-30T02:23:19.813Z,85.15
2022-08-30T02:26:23.265Z,83.91
2022-08-30T02:29:26.966Z,85.06
2022-08-30T02:32:29.599Z,85.25
2022-08-30T02:35:32.540Z,85.33
2022-08-30T02:38:35.839Z,84.88
2022-08-30T02:41:40.042Z,85.97
2022-08-30T02:44:42.936Z,86.84
2022-08-30T02:47:47.095Z,87.64
2022-08-30T02:50:52.250Z,86.38
2022-08-30T02:53:55.234Z,87.89
2022-08-30T02:56:57.830Z,85.37
2022-08-30T03:00:01.325Z,84.73
2022-08-30T03:03:04.328Z,86.54
2022-08-30T03:06:07.641Z,85.59
2022-08-30T03:09:10.666Z,88.18
2022-08-30T03:12:13.922Z,88.60
2022-08-30T03:15:17.347Z,88.35
2022-08-30T03:18:22.399Z,89.95
2022-08-30T03:21:25.600Z,90.01
2022-08-30T03:24:28.514Z,89.78
2022-08-30T03:27:31.546Z,90.84
2022-08-30T03:30:35.267Z,91.06
2022-08-30T03:33:40.462Z,90.75
2022-08-30T03:36:43.409Z,91.49
2022-08-30T03:39:46.415Z,92.45
2022-08-30T03:42:50.382Z,92.98
2022-08-30T03:45:53.116Z,89.86
2022-08-30T03:48:56.331Z,91.20
2022-08-30T03:51:59.081Z,92.28
2022-08-30T03:55:01.947Z,89.82
2022-08-30T03:58:04.594Z,88.67
2022-08-30T04:01:10.527Z,87.82
2022-08-30T04:04:20.532Z,89.70
2022-08-30T04:07:23.313Z,85.82
2022-08-30T04:10:26.530Z,91.00
2022-08-30T04:13:30.000Z,91.45
2022-08-30T04:16:33.006Z,87.24
2022-08-30T04:19:35.619Z,87.00
2022-08-30T04:22:38.549Z,88.10
2022-08-30T04:25:42.097Z,82.78
2022-08-30T04:28:45.031Z,82.03
2022-08-30T04:31:49.301Z,81.04
2022-08-30T04:34:57.530Z,81.99
2022-08-30T04:38:00.257Z,81.94
2022-08-30T04:41:03.890Z,81.83
2022-08-30T04:44:07.820Z,81.05
2022-08-30T04:47:12.123Z,77.17
2022-08-30T04:50:19.396Z,77.28
2022-08-30T04:53:22.299Z,77.19
2022-08-30T04:56:25.760Z,77.36
2022-08-30T04:59:29.585Z,74.29
2022-08-30T05:02:35.456Z,72.69
2022-08-30T05:05:41.946Z,71.97
2022-08-30T05:08:46.327Z,69.94
2022-08-30T05:11:50.086Z,68.40
2022-08-30T05:14:52.927Z,66.34
2022-08-30T05:17:55.810Z,66.30
2022-08-30T05:21:14.688Z,66.18
2022-08-30T05:24:17.769Z,65.73
2022-08-30T05:27:22.215Z,64.90
2022-08-30T05:30:27.281Z,63.08
2022-08-30T05:33:30.286Z,63.49
2022-08-30T05:36:41.116Z,62.19
2022-08-30T05:39:50.821Z,60.02
2022-08-30T05:42:54.888Z,59.58
2022-08-30T05:46:01.915Z,57.80
2022-08-30T05:49:07.141Z,57.95
2022-08-30T05:52:09.704Z,55.11
2022-08-30T05:55:13.309Z,55.25
2022-08-30T05:58:16.189Z,56.83
2022-08-30T06:01:28.463Z,53.65
2022-08-30T06:04:31.990Z,52.67
2022-08-30T06:07:37.688Z,51.43
2022-08-30T06:10:41.955Z,50.63
2022-08-30T06:13:44.555Z,53.03
2022-08-30T06:16:47.722Z,54.85
2022-08-30T06:19:50.350Z,56.09
2022-08-30T06:22:53.252Z,55.40
2022-08-30T06:25:55.964Z,56.96
2022-08-30T06:29:02.531Z,57.97
2022-08-30T06:32:05.164Z,57.00
2022-08-30T06:35:11.192Z,57.06
2022-08-30T06:38:13.912Z,56.28
2022-08-30T06:41:19.505Z,54.71
2022-08-30T06:44:22.071Z,53.83
2022-08-30T06:47:25.166Z,52.62
2022-08-30T06:50:28.516Z,54.46
2022-08-30T06:53:33.724Z,50.70
2022-08-30T06:56:37.193Z,49.95
2022-08-30T06:59:40.428Z,48.46
2022-08-30T07:02:43.687Z,47.56
2022-08-30T07:05:49.088Z,44.34
2022-08-30T07:08:56.202Z,44.88
2022-08-30T07:12:04.089Z,46.06
2022-08-30T07:15:08.003Z,44.20
2022-08-30T07:18:30.587Z,45.83
2022-08-30T07:21:37.319Z,46.08
2022-08-30T07:24:40.574Z,44.45
2022-08-30T07:27:43.590Z,42.07
2022-08-30T07:30:46.940Z,42.62
2022-08-30T07:33:50.035Z,40.42
2022-08-30T07:36:55.482Z,42.22
2022-08-30T07:39:58.141Z,42.75
2022-08-30T07:43:02.360Z,40.51
2022-08-30T07:46:07.485Z,39.12
2022-08-30T07:49:11.869Z,39.78
2022-08-30T07:52:14.529Z,37.53
2022-08-30T07:55:18.366Z,36.26
2022-08-30T07:58:21.945Z,39.30
2022-08-30T08:01:25.348Z,39.66
2022-08-30T08:04:28.851Z,36.93
2022-08-30T08:07:32.292Z,36.88
2022-08-30T08:10:37.840Z,38.64
2022-08-30T08:13:52.823Z,35.65
2022-08-30T08:16:57.917Z,37.07
2022-08-30T08:20:00.828Z,38.99
2022-08-30T08:23:04.846Z,37.97
2022-08-30T08:26:10.172Z,36.70
2022-08-30T08:29:13.438Z,34.56
2022-08-30T08:32:16.494Z,33.27
2022-08-30T08:35:20.381Z,34.55
2022-08-30T08:38:24.282Z,35.00
2022-08-30T08:41:52.979Z,36.36
2022-08-30T08:45:12.100Z,34.37
2022-08-30T08:49:00.023Z,33.33
2022-08-30T08:52:27.295Z,32.16
2022-08-30T08:55:30.632Z,30.71
2022-08-30T08:58:54.983Z,31.51
2022-08-30T09:02:03.476Z,31.12
2022-08-30T09:05:11.542Z,29.94
2022-08-30T09:08:20.165Z,32.63
2022-08-30T09:11:32.816Z,35.68
2022-08-30T09:14:44.219Z,35.66
2022-08-30T09:18:18.924Z,35.52
2022-08-30T09:21:27.751Z,35.94
2022-08-30T09:24:45.295Z,37.70
2022-08-30T09:27:50.434Z,36.39
2022-08-30T09:31:20.088Z,34.30
2022-08-30T09:34:25.653Z,30.76
2022-08-30T09:37:32.676Z,31.14
2022-08-30T09:40:42.104Z,33.54
2022-08-30T09:43:44.868Z,32.48
2022-08-30T09:46:52.181Z,33.78
2022-08-30T09:50:25.270Z,32.58
2022-08-30T09:53:34.634Z,30.86
2022-08-30T09:56:52.162Z,31.55
2022-08-30T10:00:31.514Z,30.89
2022-08-30T10:03:49.844Z,30.42
2022-08-30T10:07:28.910Z,32.00
2022-08-30T10:11:19.787Z,29.92
2022-08-30T10:14:45.421Z,29.81
2022-08-30T10:17:56.781Z,29.68
2022-08-30T10:21:19.764Z,28.31
2022-08-30T10:24:43.974Z,31.90
2022-08-30T10:28:11.623Z,31.95
2022-08-30T10:31:56.600Z,30.22
2022-08-30T10:35:17.467Z,30.82
2022-08-30T10:38:32.812Z,32.75
2022-08-30T10:42:17.711Z,32.44
2022-08-30T10:45:22.245Z,35.61
2022-08-30T10:48:35.694Z,33.37
2022-08-30T10:52:01.425Z,31.89
2022-08-30T10:55:08.553Z,30.53
2022-08-30T10:58:16.458Z,31.48
2022-08-30T11:01:31.497Z,35.63
2022-08-30T11:05:05.839Z,33.62
2022-08-30T11:08:46.189Z,34.07
2022-08-30T11:12:00.554Z,34.25
2022-08-30T11:15:25.199Z,32.96
2022-08-30T11:18:34.787Z,31.27
2022-08-30T11:21:43.061Z,33.91
2022-08-30T11:25:15.268Z,35.38
2022-08-30T11:28:39.225Z,36.43
2022-08-30T11:31:43.635Z,33.72
2022-08-30T11:34:58.032Z,34.93
2022-08-30T11:38:13.804Z,33.24
2022-08-30T11:41:43.166Z,34.65
2022-08-30T11:44:50.288Z,32.14
2022-08-30T11:47:59.448Z,33.45
2022-08-30T11:51:35.081Z,35.01
2022-08-30T11:55:02.769Z,34.45
2022-08-30T11:58:44.220Z,34.26
2022-08-30T12:01:55.044Z,35.27
2022-08-30T12:04:59.709Z,35.23
2022-08-30T12:08:09.906Z,35.49
2022-08-30T12:11:13.874Z,34.95
2022-08-30T12:14:41.483Z,31.49
2022-08-30T12:18:17.939Z,32.87
2022-08-30T12:21:22.224Z,33.61
2022-08-30T12:24:43.631Z,33.32
2022-08-30T12:27:47.647Z,33.60
2022-08-30T12:30:52.171Z,35.53
2022-08-30T12:34:01.679Z,37.59
2022-08-30T12:37:27.126Z,36.89
2022-08-30T12:40:35.153Z,36.61
2022-08-30T12:43:47.653Z,36.96
2022-08-30T12:46:59.956Z,37.05
2022-08-30T12:50:05.772Z,35.28
2022-08-30T12:53:13.934Z,35.02
2022-08-30T12:56:35.063Z,36.06
2022-08-30T12:59:56.734Z,37.86
2022-08-30T13:03:28.045Z,37.50
2022-08-30T13:06:53.131Z,36.34
2022-08-30T13:10:04.698Z,35.30
2022-08-30T13:13:07.504Z,35.90
2022-08-30T13:16:13.367Z,35.45
2022-08-30T13:19:29.466Z,36.37
2022-08-30T13:22:36.294Z,36.89
2022-08-30T13:25:40.210Z,35.79
2022-08-30T13:28:49.659Z,35.87
2022-08-30T13:31:53.256Z,35.53
2022-08-30T13:34:56.557Z,35.14
2022-08-30T13:38:01.802Z,36.50
2022-08-30T13:41:04.789Z,35.55
2022-08-30T13:44:11.283Z,36.26
2022-08-30T13:47:32.864Z,36.89
2022-08-30T13:50:36.185Z,37.20
2022-08-30T13:53:54.851Z,37.10
2022-08-30T13:57:00.462Z,36.70
2022-08-30T14:00:12.116Z,35.81
2022-08-30T14:03:16.079Z,35.86
2022-08-30T14:06:33.548Z,35.25
2022-08-30T14:09:39.846Z,36.14
2022-08-30T14:13:08.076Z,36.81
2022-08-30T14:19:31.167Z,35.92
2022-08-30T14:22:33.746Z,35.70
2022-08-30T14:25:37.299Z,35.79
2022-08-30T14:28:40.021Z,36.17
2022-08-30T14:31:44.752Z,37.27
2022-08-30T14:34:50.223Z,37.26
2022-08-30T14:37:54.897Z,36.68
2022-08-30T14:41:11.499Z,37.74
2022-08-30T14:44:19.177Z,37.38
2022-08-30T14:47:26.790Z,38.53
2022-08-30T14:50:32.859Z,37.85
2022-08-30T14:53:35.751Z,38.47
2022-08-30T14:56:42.393Z,38.27
2022-08-30T14:59:45.112Z,38.53
2022-08-30T15:02:49.811Z,38.97
2022-08-30T15:05:52.994Z,38.80
2022-08-30T15:08:56.448Z,39.10
2022-08-30T15:12:01.306Z,39.25
2022-08-30T15:15:06.131Z,40.07
2022-08-30T15:18:09.321Z,39.97
2022-08-30T15:21:12.572Z,40.02
2022-08-30T15:24:19.158Z,40.93
2022-08-30T15:27:35.223Z,42.42
2022-08-30T15:30:42.717Z,41.95
2022-08-30T15:33:45.991Z,41.98
2022-08-30T15:36:49.357Z,42.44
2022-08-30T15:39:53.919Z,42.63
2022-08-30T15:42:56.594Z,43.13
2022-08-30T15:46:13.785Z,43.50
2022-08-30T15:49:20.857Z,43.41
2022-08-30T15:52:25.273Z,44.35
2022-08-30T15:55:28.833Z,44.06
2022-08-30T15:58:33.409Z,44.32
2022-08-30T16:01:36.681Z,44.84
2022-08-30T16:04:40.183Z,44.68
2022-08-30T16:07:46.699Z,44.83
2022-08-30T16:10:52.008Z,44.74
2022-08-30T16:13:56.251Z,45.27
2022-08-30T16:16:59.769Z,45.38
2022-08-30T16:20:02.618Z,45.72
2022-08-30T16:23:06.305Z,45.84
2022-08-30T16:26:14.635Z,45.50
2022-08-30T16:29:21.124Z,46.60
2022-08-30T16:32:24.240Z,47.18
2022-08-30T16:35:27.279Z,46.54
2022-08-30T16:38:30.266Z,47.29
2022-08-30T16:41:33.433Z,47.60
2022-08-30T16:44:36.289Z,47.75
2022-08-30T16:47:39.359Z,47.84
2022-08-30T16:50:45.619Z,48.04
2022-08-30T16:53:49.552Z,48.18
2022-08-30T16:56:56.309Z,48.36
2022-08-30T17:00:00.134Z,48.66
2022-08-30T17:03:03.221Z,49.17
2022-08-30T17:06:07.039Z,49.17
2022-08-30T17:09:10.955Z,48.82
2022-08-30T17:12:14.995Z,49.25
2022-08-30T17:15:20.270Z,50.04
2022-08-30T17:18:23.317Z,50.12
2022-08-30T17:21:26.480Z,50.49
2022-08-30T17:24:30.623Z,51.03
2022-08-30T17:27:34.694Z,51.29
2022-08-30T17:30:40.167Z,51.78
2022-08-30T17:33:45.586Z,51.90
2022-08-30T17:36:51.277Z,52.88
2022-08-30T17:39:54.234Z,53.05
2022-08-30T17:42:57.924Z,52.92
2022-08-30T17:46:06.030Z,52.35
2022-08-30T17:49:10.661Z,52.60
2022-08-30T17:52:14.563Z,51.83
2022-08-30T17:55:17.776Z,50.15
2022-08-30T17:58:21.870Z,49.47
2022-08-30T18:01:28.111Z,49.41
2022-08-30T18:04:31.751Z,50.04
2022-08-30T18:07:35.219Z,49.92
2022-08-30T18:10:38.844Z,48.45
2022-08-30T18:13:41.542Z,48.52
2022-08-30T18:16:53.339Z,48.08
2022-08-30T18:19:57.761Z,48.64
2022-08-30T18:23:00.881Z,49.27
2022-08-30T18:26:04.565Z,48.98
2022-08-30T18:29:08.524Z,49.65
2022-08-30T18:32:13.338Z,49.63
2022-08-30T18:35:17.778Z,48.67
2022-08-30T18:38:23.641Z,49.33
2022-08-30T18:41:28.362Z,48.78
2022-08-30T18:44:33.613Z,49.84
2022-08-30T18:47:37.537Z,50.34
2022-08-30T18:50:44.021Z,50.52
2022-08-30T18:53:48.641Z,49.63
2022-08-30T18:56:51.730Z,50.35
2022-08-30T18:59:54.998Z,50.87
2022-08-30T19:02:58.090Z,49.88
2022-08-30T19:06:03.776Z,51.16
2022-08-30T19:09:09.066Z,51.29
2022-08-30T19:12:13.284Z,50.80
2022-08-30T19:15:16.713Z,50.94
2022-08-30T19:18:20.754Z,50.26
2022-08-30T19:21:23.821Z,51.63
2022-08-30T19:24:26.701Z,51.53
2022-08-30T19:27:37.331Z,52.02
2022-08-30T19:30:43.615Z,52.78
2022-08-30T19:33:47.913Z,52.31
2022-08-30T19:36:50.880Z,53.48
2022-08-30T19:39:55.511Z,53.48
2022-08-30T19:43:05.198Z,54.03
2022-08-30T19:46:08.505Z,54.30
2022-08-30T19:49:13.924Z,54.16
2022-08-30T19:52:18.079Z,54.50
2022-08-30T19:55:28.337Z,53.72
2022-08-30T19:58:32.931Z,53.49
2022-08-30T20:01:39.473Z,54.20
2022-08-30T20:04:42.731Z,54.01
2022-08-30T20:07:45.479Z,54.52
2022-08-30T20:10:49.594Z,54.61
2022-08-30T20:13:56.482Z,54.24
2022-08-30T20:17:02.387Z,54.08
2022-08-30T20:20:07.654Z,53.35
2022-08-30T20:23:14.672Z,56.48
2022-08-30T20:26:22.851Z,56.92
2022-08-30T20:29:38.032Z,56.73
2022-08-30T20:32:46.791Z,57.13
2022-08-30T20:35:51.427Z,58.07
2022-08-30T20:39:19.900Z,58.41
2022-08-30T20:42:25.617Z,58.63
2022-08-30T20:45:30.892Z,58.76
2022-08-30T20:48:34.219Z,58.94
2022-08-30T20:51:36.760Z,58.95
2022-08-30T20:54:43.234Z,59.52
2022-08-30T20:57:45.938Z,59.73
2022-08-30T21:00:53.581Z,60.44
2022-08-30T21:03:56.199Z,61.29
2022-08-30T21:07:00.208Z,61.72
2022-08-30T21:10:03.947Z,61.04
2022-08-30T21:13:07.626Z,61.05
2022-08-30T21:16:12.309Z,61.59
2022-08-30T21:19:15.434Z,61.35
2022-08-30T21:22:18.059Z,61.43
2022-08-30T21:25:21.664Z,60.58
2022-08-30T21:28:24.196Z,62.02
2022-08-30T21:31:28.820Z,62.16
2022-08-30T21:34:51.735Z,61.45
2022-08-30T21:37:54.744Z,62.24
2022-08-30T21:40:57.245Z,62.57
2022-08-30T21:44:02.549Z,62.64
2022-08-30T21:47:06.088Z,62.92
2022-08-30T21:50:09.334Z,63.15
2022-08-30T21:53:12.090Z,63.06
2022-08-30T21:56:22.235Z,63.37
2022-08-30T21:59:24.921Z,63.27
2022-08-30T22:02:29.322Z,63.49
2022-08-30T22:05:32.236Z,63.28
2022-08-30T22:08:35.092Z,63.49
2022-08-30T22:11:38.058Z,63.42
2022-08-30T22:14:40.923Z,64.16
2022-08-30T22:17:44.727Z,63.52
2022-08-30T22:20:47.353Z,63.27
2022-08-30T22:23:51.219Z,63.21
2022-08-30T22:26:53.933Z,63.40
2022-08-30T22:29:59.604Z,63.16
2022-08-30T22:33:02.722Z,62.25
2022-08-30T22:36:15.341Z,63.29
2022-08-30T22:39:18.234Z,63.30
2022-08-30T22:42:21.101Z,64.31
2022-08-30T22:45:23.719Z,64.14
2022-08-30T22:48:26.662Z,65.06
2022-08-30T22:51:29.709Z,65.33
2022-08-30T22:54:33.194Z,66.30
2022-08-30T22:57:37.262Z,66.83
2022-08-30T23:00:42.932Z,67.12
2022-08-30T23:03:58.512Z,66.34
2022-08-30T23:07:01.619Z,67.22
2022-08-30T23:10:06.412Z,67.91
2022-08-30T23:13:10.571Z,67.81
2022-08-30T23:16:14.597Z,67.11
2022-08-30T23:19:18.179Z,67.45
2022-08-30T23:22:20.735Z,67.35
2022-08-30T23:25:44.642Z,66.82
2022-08-30T23:29:05.934Z,67.26
2022-08-30T23:32:28.214Z,67.52
2022-08-30T23:35:49.444Z,67.17
2022-08-30T23:39:11.051Z,66.19
2022-08-30T23:42:32.127Z,65.84
2022-08-30T23:45:53.504Z,66.42
2022-08-30T23:49:15.347Z,65.27
2022-08-30T23:52:36.862Z,64.38
2022-08-30T23:55:58.829Z,63.32
2022-08-30T23:59:20.252Z,64.09
